Time,TemperatureF,DewpointF,PressureIn,WindDirection,WindDirectionDegrees,WindSpeedMPH,WindSpeedGustMPH,Humidity,HourlyPrecipIn,Conditions,Clouds,dailyrainin,SoftwareType,DateUTC
2013-05-07 00:01:00,53.2,52.0,30.02,NNE,15,0.0,0.0,94,0.00,,,0.00,weatherlink.com 1.10,2013-05-07 05:01:00,
2013-05-07 00:16:00,53.0,51.0,30.02,NNE,15,0.0,0.0,94,0.00,,,0.00,weatherlink.com 1.10,2013-05-07 05:16:00,
2013-05-07 00:31:00,52.7,51.0,30.01,NNE,15,0.0,0.0,94,0.00,,,0.00,weatherlink.com 1.10,2013-05-07 05:31:00,
2013-05-07 00:46:00,52.2,51.0,30.02,NNE,15,0.0,0.0,94,0.00,,,0.00,weatherlink.com 1.10,2013-05-07 05:46:00,
2013-05-07 01:01:00,51.8,50.0,30.02,NNE,15,0.0,0.0,94,0.00,,,0.00,weatherlink.com 1.10,2013-05-07 06:01:00,
2013-05-07 01:16:00,51.9,51.0,30.01,NNE,15,0.0,0.0,95,0.00,,,0.00,weatherlink.com 1.10,2013-05-07 06:16:00,
2013-05-07 01:31:00,51.6,50.0,30.01,NNE,15,0.0,0.0,95,0.00,,,0.00,weatherlink.com 1.10,2013-05-07 06:31:00,
2013-05-07 01:46:00,51.4,50.0,30.01,NNE,15,0.0,0.0,95,0.00,,,0.00,weatherlink.com 1.10,2013-05-07 06:46:00,
2013-05-07 02:01:00,51.2,50.0,30.00,NNE,15,0.0,0.0,95,0.00,,,0.00,weatherlink.com 1.10,2013-05-07 07:01:00,
2013-05-07 02:20:00,51.1,50.0,30.00,NNE,15,0.0,0.0,95,0.00,,,0.00,weatherlink.com 1.10,2013-05-07 07:20:00,
2013-05-07 02:31:00,51.0,50.0,29.99,NNE,15,0.0,0.0,95,0.00,,,0.00,weatherlink.com 1.10,2013-05-07 07:31:00,
2013-05-07 02:46:00,50.6,50.0,29.99,NNE,15,0.0,0.0,96,0.00,,,0.00,weatherlink.com 1.10,2013-05-07 07:46:00,
2013-05-07 03:01:00,50.4,49.0,29.99,NNE,15,0.0,0.0,95,0.00,,,0.00,weatherlink.com 1.10,2013-05-07 08:01:00,
2013-05-07 03:16:00,50.1,49.0,29.98,NNE,15,0.0,0.0,96,0.00,,,0.00,weatherlink.com 1.10,2013-05-07 08:16:00,
2013-05-07 03:31:00,49.7,48.0,29.98,NNE,15,0.0,0.0,95,0.00,,,0.00,weatherlink.com 1.10,2013-05-07 08:31:00,
2013-05-07 03:46:00,49.6,49.0,29.98,NNE,15,0.0,0.0,96,0.00,,,0.00,weatherlink.com 1.10,2013-05-07 08:46:00,
2013-05-07 04:02:00,49.2,48.0,29.98,NNE,15,0.0,0.0,96,0.00,,,0.00,weatherlink.com 1.10,2013-05-07 09:02:00,
2013-05-07 04:17:00,49.2,48.0,29.98,NNE,15,0.0,0.0,96,0.00,,,0.00,weatherlink.com 1.10,2013-05-07 09:17:00,
2013-05-07 04:32:00,48.9,48.0,29.99,NNE,15,0.0,0.0,96,0.00,,,0.00,weatherlink.com 1.10,2013-05-07 09:32:00,
2013-05-07 04:47:00,48.8,48.0,29.99,NNE,15,0.0,0.0,96,0.00,,,0.00,weatherlink.com 1.10,2013-05-07 09:47:00,
2013-05-07 05:02:00,48.4,47.0,29.98,NNE,15,0.0,0.0,96,0.00,,,0.00,weatherlink.com 1.10,2013-05-07 10:02:00,
2013-05-07 05:17:00,48.3,47.0,29.99,NNE,15,0.0,0.0,96,0.00,,,0.00,weatherlink.com 1.10,2013-05-07 10:17:00,
2013-05-07 05:32:00,47.8,47.0,29.99,NNE,15,0.0,0.0,96,0.00,,,0.00,weatherlink.com 1.10,2013-05-07 10:32:00,
2013-05-07 05:47:00,47.7,47.0,29.99,NNE,15,0.0,0.0,96,0.00,,,0.00,weatherlink.com 1.10,2013-05-07 10:47:00,
2013-05-07 06:02:00,47.6,47.0,29.99,NNE,15,0.0,0.0,96,0.00,,,0.00,weatherlink.com 1.10,2013-05-07 11:02:00,
2013-05-07 06:17:00,47.7,47.0,29.99,NNE,15,0.0,0.0,97,0.00,,,0.00,weatherlink.com 1.10,2013-05-07 11:17:00,
2013-05-07 06:32:00,47.7,47.0,30.00,NNE,15,0.0,0.0,96,0.00,,,0.00,weatherlink.com 1.10,2013-05-07 11:32:00,
2013-05-07 06:47:00,48.0,47.0,30.00,NNE,15,0.0,0.0,97,0.00,,,0.00,weatherlink.com 1.10,2013-05-07 11:47:00,
2013-05-07 07:02:00,48.1,47.0,30.01,NNE,15,0.0,0.0,97,0.00,,,0.00,weatherlink.com 1.10,2013-05-07 12:02:00,
2013-05-07 07:17:00,49.2,48.0,30.02,NNE,15,0.0,0.0,97,0.00,,,0.00,weatherlink.com 1.10,2013-05-07 12:17:00,
2013-05-07 07:32:00,50.6,50.0,30.02,NNE,15,0.0,0.0,97,0.00,,,0.00,weatherlink.com 1.10,2013-05-07 12:32:00,
2013-05-07 07:47:00,52.8,52.0,30.02,NNE,15,0.0,0.0,97,0.00,,,0.00,weatherlink.com 1.10,2013-05-07 12:47:00,
2013-05-07 08:02:00,54.4,54.0,30.02,WNW,297,0.0,0.0,97,0.00,,,0.00,weatherlink.com 1.10,2013-05-07 13:02:00,
2013-05-07 08:17:00,55.7,54.0,30.03,WNW,300,0.0,1.0,93,0.00,,,0.00,weatherlink.com 1.10,2013-05-07 13:17:00,
2013-05-07 08:32:00,56.8,54.0,30.03,North,11,0.0,1.0,90,0.00,,,0.00,weatherlink.com 1.10,2013-05-07 13:32:00,
2013-05-07 08:47:00,58.7,55.0,30.03,NNE,22,0.0,1.0,87,0.00,,,0.00,weatherlink.com 1.10,2013-05-07 13:47:00,
2013-05-07 09:02:00,61.9,56.0,30.03,NNE,32,0.0,2.0,81,0.00,,,0.00,weatherlink.com 1.10,2013-05-07 14:02:00,
2013-05-07 09:17:00,64.9,57.0,30.03,North,8,0.0,1.0,75,0.00,,,0.00,weatherlink.com 1.10,2013-05-07 14:17:00,
2013-05-07 09:32:00,65.9,56.0,30.04,NNW,332,0.0,3.0,71,0.00,,,0.00,weatherlink.com 1.10,2013-05-07 14:32:00,
2013-05-07 09:47:00,65.9,55.0,30.03,NW,314,1.0,2.0,69,0.00,,,0.00,weatherlink.com 1.10,2013-05-07 14:47:00,
2013-05-07 10:02:00,68.0,57.0,30.03,NW,321,0.0,3.0,67,0.00,,,0.00,weatherlink.com 1.10,2013-05-07 15:02:00,
2013-05-07 10:17:00,68.6,57.0,30.03,North,357,0.0,2.0,66,0.00,,,0.00,weatherlink.com 1.10,2013-05-07 15:17:00,
2013-05-07 10:32:00,70.3,56.0,30.02,NW,304,0.0,3.0,61,0.00,,,0.00,weatherlink.com 1.10,2013-05-07 15:32:00,
2013-05-07 10:47:00,72.0,54.0,30.03,SSE,165,0.0,2.0,54,0.00,,,0.00,weatherlink.com 1.10,2013-05-07 15:47:00,
2013-05-07 11:03:00,72.8,55.0,30.02,SE,127,0.0,3.0,53,0.00,,,0.00,weatherlink.com 1.10,2013-05-07 16:03:00,
2013-05-07 11:18:00,74.2,54.0,30.02,WNW,298,3.0,3.0,49,0.00,,,0.00,weatherlink.com 1.10,2013-05-07 16:18:00,
2013-05-07 11:33:00,73.1,54.0,30.02,NE,40,0.0,3.0,51,0.00,,,0.00,weatherlink.com 1.10,2013-05-07 16:33:00,
2013-05-07 11:48:00,74.5,53.0,30.02,South,181,2.0,7.0,48,0.00,,,0.00,weatherlink.com 1.10,2013-05-07 16:48:00,
2013-05-07 12:03:00,73.8,53.0,30.01,ENE,63,1.0,4.0,48,0.00,,,0.00,weatherlink.com 1.10,2013-05-07 17:03:00,
2013-05-07 12:18:00,75.0,52.0,30.01,NNE,27,0.0,2.0,44,0.00,,,0.00,weatherlink.com 1.10,2013-05-07 17:18:00,
2013-05-07 12:33:00,76.8,50.0,30.01,SE,139,2.0,5.0,39,0.00,,,0.00,weatherlink.com 1.10,2013-05-07 17:33:00,
2013-05-07 12:48:00,77.1,51.0,30.00,ENE,57,0.0,5.0,40,0.00,,,0.00,weatherlink.com 1.10,2013-05-07 17:48:00,
2013-05-07 13:03:00,77.4,46.0,29.99,SE,142,0.0,3.0,33,0.00,,,0.00,weatherlink.com 1.10,2013-05-07 18:03:00,
2013-05-07 13:18:00,77.0,50.0,29.99,SSW,203,0.0,5.0,39,0.00,,,0.00,weatherlink.com 1.10,2013-05-07 18:18:00,
2013-05-07 13:33:00,78.3,49.0,29.99,SE,134,2.0,5.0,36,0.00,,,0.00,weatherlink.com 1.10,2013-05-07 18:33:00,
2013-05-07 13:48:00,78.6,49.0,29.98,East,81,0.0,6.0,35,0.00,,,0.00,weatherlink.com 1.10,2013-05-07 18:48:00,
2013-05-07 14:03:00,79.1,49.0,29.98,NNW,340,0.0,5.0,35,0.00,,,0.00,weatherlink.com 1.10,2013-05-07 19:03:00,
2013-05-07 14:18:00,77.7,50.0,29.97,SW,217,3.0,6.0,38,0.00,,,0.00,weatherlink.com 1.10,2013-05-07 19:18:00,
2013-05-07 14:33:00,78.6,49.0,29.97,ESE,105,0.0,5.0,35,0.00,,,0.00,weatherlink.com 1.10,2013-05-07 19:33:00,
2013-05-07 14:48:00,79.0,46.0,29.96,SSE,155,1.0,7.0,31,0.00,,,0.00,weatherlink.com 1.10,2013-05-07 19:48:00,
2013-05-07 15:03:00,79.2,49.0,29.96,ESE,107,0.0,6.0,35,0.00,,,0.00,weatherlink.com 1.10,2013-05-07 20:03:00,
2013-05-07 15:18:00,79.2,48.0,29.95,SSE,154,1.0,4.0,34,0.00,,,0.00,weatherlink.com 1.10,2013-05-07 20:18:00,
2013-05-07 15:33:00,79.0,47.0,29.95,SE,124,0.0,3.0,33,0.00,,,0.00,weatherlink.com 1.10,2013-05-07 20:33:00,
2013-05-07 15:48:00,78.6,48.0,29.94,SSE,158,1.0,5.0,34,0.00,,,0.00,weatherlink.com 1.10,2013-05-07 20:48:00,
2013-05-07 16:03:00,78.0,47.0,29.94,SE,146,0.0,3.0,34,0.00,,,0.00,weatherlink.com 1.10,2013-05-07 21:03:00,
2013-05-07 16:18:00,77.4,46.0,29.93,SSE,153,0.0,4.0,33,0.00,,,0.00,weatherlink.com 1.10,2013-05-07 21:18:00,
2013-05-07 16:33:00,76.8,45.0,29.93,SE,146,0.0,6.0,32,0.00,,,0.00,weatherlink.com 1.10,2013-05-07 21:33:00,
2013-05-07 16:48:00,76.2,46.0,29.93,ESE,103,0.0,4.0,34,0.00,,,0.00,weatherlink.com 1.10,2013-05-07 21:48:00,
2013-05-07 17:03:00,75.9,48.0,29.93,NW,314,0.0,4.0,37,0.00,,,0.00,weatherlink.com 1.10,2013-05-07 22:03:00,
2013-05-07 17:18:00,76.6,46.0,29.92,SW,231,0.0,4.0,34,0.00,,,0.00,weatherlink.com 1.10,2013-05-07 22:18:00,
2013-05-07 17:33:00,76.5,48.0,29.92,SSE,150,3.0,3.0,36,0.00,,,0.00,weatherlink.com 1.10,2013-05-07 22:33:00,
2013-05-07 17:48:00,76.1,47.0,29.92,ESE,121,5.0,6.0,36,0.00,,,0.00,weatherlink.com 1.10,2013-05-07 22:48:00,
2013-05-07 18:03:00,75.6,47.0,29.92,ESE,117,0.0,2.0,37,0.00,,,0.00,weatherlink.com 1.10,2013-05-07 23:03:00,
2013-05-07 18:18:00,74.7,47.0,29.92,SE,144,0.0,-999.0,37,-99.99,,,0.00,weatherlink.com 1.10,2013-05-07 23:18:00,
2013-05-07 18:34:00,73.9,47.0,29.91,SSW,204,0.0,1.0,39,0.00,,,0.00,weatherlink.com 1.10,2013-05-07 23:34:00,
2013-05-07 18:49:00,73.4,47.0,29.91,South,186,0.0,3.0,39,0.00,,,0.00,weatherlink.com 1.10,2013-05-07 23:49:00,
2013-05-07 19:04:00,73.9,47.0,29.91,SSW,196,0.0,2.0,39,0.00,,,0.00,weatherlink.com 1.10,2013-05-08 00:04:00,
2013-05-07 19:19:00,74.1,47.0,29.91,SSW,200,0.0,3.0,38,0.00,,,0.00,weatherlink.com 1.10,2013-05-08 00:19:00,
2013-05-07 19:34:00,72.8,48.0,29.91,SE,134,2.0,2.0,41,0.00,,,0.00,weatherlink.com 1.10,2013-05-08 00:34:00,
2013-05-07 19:49:00,71.7,48.0,29.91,SSE,160,0.0,1.0,43,0.00,,,0.00,weatherlink.com 1.10,2013-05-08 00:49:00,
2013-05-07 20:04:00,70.7,48.0,29.91,SSE,150,0.0,1.0,45,0.00,,,0.00,weatherlink.com 1.10,2013-05-08 01:04:00,
2013-05-07 20:19:00,69.2,50.0,29.91,SSE,152,0.0,0.0,50,0.00,,,0.00,weatherlink.com 1.10,2013-05-08 01:19:00,
2013-05-07 20:34:00,67.4,50.0,29.91,SSE,152,0.0,0.0,53,0.00,,,0.00,weatherlink.com 1.10,2013-05-08 01:34:00,
2013-05-07 20:49:00,65.9,50.0,29.91,SSE,152,0.0,0.0,57,0.00,,,0.00,weatherlink.com 1.10,2013-05-08 01:49:00,
2013-05-07 21:04:00,64.8,50.0,29.91,SSE,152,0.0,0.0,60,0.00,,,0.00,weatherlink.com 1.10,2013-05-08 02:04:00,
2013-05-07 21:19:00,63.9,51.0,29.91,SSE,150,0.0,0.0,63,0.00,,,0.00,weatherlink.com 1.10,2013-05-08 02:19:00,
2013-05-07 21:34:00,63.3,51.0,29.92,SSE,151,0.0,0.0,64,0.00,,,0.00,weatherlink.com 1.10,2013-05-08 02:34:00,
2013-05-07 21:49:00,62.8,51.0,29.92,SSE,151,0.0,0.0,66,0.00,,,0.00,weatherlink.com 1.10,2013-05-08 02:49:00,
2013-05-07 22:04:00,61.9,51.0,29.92,SSE,151,0.0,0.0,68,0.00,,,0.00,weatherlink.com 1.10,2013-05-08 03:04:00,
2013-05-07 22:19:00,61.4,51.0,29.92,SSE,150,0.0,0.0,69,0.00,,,0.00,weatherlink.com 1.10,2013-05-08 03:19:00,
2013-05-07 22:34:00,60.7,51.0,29.93,SSE,151,0.0,0.0,71,0.00,,,0.00,weatherlink.com 1.10,2013-05-08 03:34:00,
2013-05-07 22:49:00,60.3,52.0,29.93,SSE,150,0.0,0.0,73,0.00,,,0.00,weatherlink.com 1.10,2013-05-08 03:49:00,
2013-05-07 23:04:00,59.7,51.0,29.93,SSE,151,0.0,0.0,73,0.00,,,0.00,weatherlink.com 1.10,2013-05-08 04:04:00,
2013-05-07 23:19:00,59.2,52.0,29.93,SSE,151,0.0,0.0,76,0.00,,,0.00,weatherlink.com 1.10,2013-05-08 04:19:00,
2013-05-07 23:34:00,59.0,51.0,29.92,SSE,151,0.0,0.0,75,0.00,,,0.00,weatherlink.com 1.10,2013-05-08 04:34:00,
2013-05-07 23:49:00,58.8,51.0,29.91,SSE,151,0.0,0.0,76,0.00,,,0.00,weatherlink.com 1.10,2013-05-08 04:49:00,